Kimper, KY (41539)

05:48 AM EST em 26 de Novembro de 2014 (GMT -0500)
East Kentucky Broadcasting | Change Station
CLOSE
Current Station
Estação Meteorológica Particular
Location: Pikeville, KY
Altitude: 686 ft
Estações Meteorológicas Próximas
Alerta a Decorrer: Winter Weather Advisory

Elev 686 ft 37.48 °N, 82.52 °W | Updated 3 seconds ago

Céu Encoberto
Céu Encoberto
38.8 °F
Aparente 39 °F
N
0.0
Vento Variável Vento de SSO
Gusts 8.7 mph

Hoje
Máxima -- | Mínima -- °F
--% Possibilidade de Precip.
Ontem
Máxima -- | Mínima -- °F
Precip. -- pol
7:20 AM 5:12 PM
Quarto crescente, 18% visible
Pressão 29.97 pol
Visibilidade 10.0 milhas
Nuvens Muito Nublado 3700 ft
Muito Nublado 4700 ft
Céu Encoberto 5500 ft
Sensação Térmica 39 °F
Ponto de Orvalho 26 °F
Humidade 60%
Chuva 0.00 pol
Altura de Neve Não disponível
UV 0 em vez de 12
Pólen .10 em vez de 12
Qualidade do Ar Não disponível
Flu Activity Não disponível
METAR KLNP 261035Z AUTO 32003KT 10SM BKN037 BKN047 OVC055 02/M02 A2997 RMK AO2

More Conditions Fewer Conditions

Pressão 29.97 pol
Visibilidade 10.0 milhas
Nuvens Muito Nublado 3700 ft
Muito Nublado 4700 ft
Céu Encoberto 5500 ft
Sensação Térmica 39 °F
Ponto de Orvalho 26 °F
Humidade 60%
Chuva 0.00 pol
Altura de Neve Não disponível
UV 0 em vez de 12
Pólen .10 em vez de 12
Qualidade do Ar Não disponível
Flu Activity Não disponível
METAR KLNP 261035Z AUTO 32003KT 10SM BKN037 BKN047 OVC055 02/M02 A2997 RMK AO2

More Conditions Fewer Conditions

10-Day Weather Forecast

Almanac

Astronomia

Nov. 26, 2014 Nascer Pôr
Hora atual
Crepúsculo civil
Crepúsculo náutico
Crepúsculo astronómico
Lua
Comprimento da luz visível
Duração do Dia
Tomorrow will be .
, % of the Moon is Illuminated

Extremos de Hoje

situação na parte mais alta situação na parte mais baixa

Community

WunderPhotos

Upload Photos

1,773,708 fotografias inseridas!

WunderBlogs® & News

Nearby

Qualidade do Ar

  Qualidade do Ar Índice da Q.A. Poluente
Not available.

Altura da Neve

Estação altura Altitude

Actividade Sísmisca

Cidade Distância Mag. Hora & Data
Mínima magnitude apresentada é 2.5.

Temperaturas das Águas Costeiras

Local Temperatura

Estações Meteorológicas Próximas